Terminal Aerodrome Forecast
Issued by NWS Newport/Morehead City, NC

Home | Current Version | Previous Version | Text Only | Print | Product List | Glossary Off
Versions: 1 2 3 4 5 6 7 8 9 10 11 12 13 14

000
FTUS42 KMHX 231859 AAB
TAFEWN
TAF AMD
KEWN 231859Z 2319/2418 32008KT P6SM -SHRA BKN025
      TEMPO 2319/2320 2SM BR BKN010
     FM232300 34006KT P6SM VCSH BKN035
     FM240100 VRB03KT P6SM SKC=

USA.gov is the U.S. government's official web portal to all federal, state and local government web resources and services.